Main page
METAR-TAF:

METAR-TAF

Airports :

Larnaca, Cyprus

Larnaca International Airport

latitude: 34-53N, longitude: 033-38E, elevation: 2 m

Current weather observation

The report was made 24 minutes ago, at 08:30 UTC
Wind 4 kt from the East/Southeast
Temperature 25°C
Humidity 47%
Pressure 1011 hPa
Visibility 10 km or more
no clouds below 1500 m and no cumulonimbus

METAR: LCLK 300830Z 12004KT CAVOK 25/13 Q1011 NOSIG

Time: 11:54 (08:54 UTC)

Forecast

The report was made 3 hours and 24 minutes ago, at 05:30 UTC
Forecast valid from 30 at 06 UTC to 01 at 06 UTC
Wind 7 kt from the North
Visibility 10 km or more
no clouds below 1500 m and no cumulonimbus
Becoming
from 30 at 07 UTC to 30 at 10 UTC
Wind 10 kt from the South/Southeast
Becoming
from 30 at 11 UTC to 30 at 14 UTC
Wind 10 kt from the South/Southwest
Becoming
from 30 at 17 UTC to 30 at 20 UTC
Wind 6 kt from the Northwest

TAF: LCLK 300530Z 3006/0106 01007KT CAVOK BECMG 3007/3010 15010KT BECMG 3011/3014 21010KT BECMG 3017/3020 31006KT

Weather observations and forecasts of more than 4000 airports (METAR and TAF reports).

The available stations are represented by yellow and red dots on the map.

Hover mouse over dot to see the name of the station.

Then click to see weather observations and forecasts.

To change the map : click on the green buttons with a black cross to zoom in, on the green button with a dash to zoom out, or on the green arrows for adjacent maps.


METAR-TAF: